sensor_id;sensor_type;location;lat;lon;timestamp;P1;durP1;ratioP1;P2;durP2;ratioP2
43048;SDS011;28673;44.412;11.918;2024-03-08T00:01:10;39.80;;;18.85;;
43048;SDS011;28673;44.412;11.918;2024-03-08T00:03:35;31.98;;;17.48;;
43048;SDS011;28673;44.412;11.918;2024-03-08T00:06:01;41.05;;;18.10;;
43048;SDS011;28673;44.412;11.918;2024-03-08T00:08:27;33.90;;;17.48;;
43048;SDS011;28673;44.412;11.918;2024-03-08T00:10:53;35.25;;;17.02;;
43048;SDS011;28673;44.412;11.918;2024-03-08T00:13:19;27.33;;;17.15;;
43048;SDS011;28673;44.412;11.918;2024-03-08T00:15:45;30.10;;;15.70;;
43048;SDS011;28673;44.412;11.918;2024-03-08T00:18:10;30.77;;;15.52;;
43048;SDS011;28673;44.412;11.918;2024-03-08T00:20:36;29.17;;;15.93;;
43048;SDS011;28673;44.412;11.918;2024-03-08T00:23:02;28.38;;;15.23;;
43048;SDS011;28673;44.412;11.918;2024-03-08T00:25:28;32.20;;;16.63;;
43048;SDS011;28673;44.412;11.918;2024-03-08T00:27:54;31.50;;;15.02;;
43048;SDS011;28673;44.412;11.918;2024-03-08T00:30:21;24.25;;;14.18;;
43048;SDS011;28673;44.412;11.918;2024-03-08T00:32:48;21.52;;;13.85;;
43048;SDS011;28673;44.412;11.918;2024-03-08T00:35:14;36.83;;;15.25;;
43048;SDS011;28673;44.412;11.918;2024-03-08T00:37:40;25.33;;;13.43;;
43048;SDS011;28673;44.412;11.918;2024-03-08T00:40:12;27.75;;;14.60;;
43048;SDS011;28673;44.412;11.918;2024-03-08T00:42:38;23.98;;;13.10;;
43048;SDS011;28673;44.412;11.918;2024-03-08T00:45:05;30.92;;;15.20;;
43048;SDS011;28673;44.412;11.918;2024-03-08T00:47:31;22.23;;;11.57;;
43048;SDS011;28673;44.412;11.918;2024-03-08T00:49:57;21.92;;;12.45;;
43048;SDS011;28673;44.412;11.918;2024-03-08T00:52:23;22.88;;;12.65;;
43048;SDS011;28673;44.412;11.918;2024-03-08T00:54:51;21.80;;;12.63;;
43048;SDS011;28673;44.412;11.918;2024-03-08T00:57:18;24.73;;;13.20;;
43048;SDS011;28673;44.412;11.918;2024-03-08T00:59:44;19.60;;;10.50;;
43048;SDS011;28673;44.412;11.918;2024-03-08T01:02:10;22.55;;;11.07;;
43048;SDS011;28673;44.412;11.918;2024-03-08T01:04:36;23.02;;;12.32;;
43048;SDS011;28673;44.412;11.918;2024-03-08T01:07:02;21.90;;;12.07;;
43048;SDS011;28673;44.412;11.918;2024-03-08T01:09:27;18.25;;;11.15;;
43048;SDS011;28673;44.412;11.918;2024-03-08T01:11:54;17.05;;;10.68;;
43048;SDS011;28673;44.412;11.918;2024-03-08T01:14:23;21.73;;;10.05;;
43048;SDS011;28673;44.412;11.918;2024-03-08T01:16:53;20.48;;;10.63;;
43048;SDS011;28673;44.412;11.918;2024-03-08T01:19:20;20.25;;;11.00;;
43048;SDS011;28673;44.412;11.918;2024-03-08T01:21:46;22.85;;;10.95;;
43048;SDS011;28673;44.412;11.918;2024-03-08T01:24:11;16.58;;;9.38;;
43048;SDS011;28673;44.412;11.918;2024-03-08T01:26:37;17.17;;;10.23;;
43048;SDS011;28673;44.412;11.918;2024-03-08T01:29:04;25.58;;;9.20;;
43048;SDS011;28673;44.412;11.918;2024-03-08T01:31:30;19.15;;;9.05;;
43048;SDS011;28673;44.412;11.918;2024-03-08T01:33:56;20.35;;;9.85;;
43048;SDS011;28673;44.412;11.918;2024-03-08T01:36:22;14.88;;;8.50;;
43048;SDS011;28673;44.412;11.918;2024-03-08T01:38:48;19.85;;;9.35;;
43048;SDS011;28673;44.412;11.918;2024-03-08T01:41:14;15.88;;;9.23;;
43048;SDS011;28673;44.412;11.918;2024-03-08T01:43:42;17.88;;;9.35;;
43048;SDS011;28673;44.412;11.918;2024-03-08T01:46:09;13.75;;;7.60;;
43048;SDS011;28673;44.412;11.918;2024-03-08T01:48:38;15.63;;;9.40;;
43048;SDS011;28673;44.412;11.918;2024-03-08T01:51:06;14.32;;;8.63;;
43048;SDS011;28673;44.412;11.918;2024-03-08T01:53:32;12.82;;;7.40;;
43048;SDS011;28673;44.412;11.918;2024-03-08T01:55:58;16.75;;;9.05;;
43048;SDS011;28673;44.412;11.918;2024-03-08T01:58:28;20.85;;;9.45;;
43048;SDS011;28673;44.412;11.918;2024-03-08T02:00:56;15.55;;;8.35;;
43048;SDS011;28673;44.412;11.918;2024-03-08T02:03:23;13.70;;;7.55;;
43048;SDS011;28673;44.412;11.918;2024-03-08T02:05:49;23.20;;;10.50;;
43048;SDS011;28673;44.412;11.918;2024-03-08T02:08:16;24.05;;;12.38;;
43048;SDS011;28673;44.412;11.918;2024-03-08T02:10:45;27.20;;;13.73;;
43048;SDS011;28673;44.412;11.918;2024-03-08T02:13:11;27.80;;;11.60;;
43048;SDS011;28673;44.412;11.918;2024-03-08T02:18:35;27.98;;;12.75;;
43048;SDS011;28673;44.412;11.918;2024-03-08T02:21:02;27.05;;;13.13;;
43048;SDS011;28673;44.412;11.918;2024-03-08T02:23:29;30.48;;;13.55;;
43048;SDS011;28673;44.412;11.918;2024-03-08T02:25:55;25.58;;;13.18;;
43048;SDS011;28673;44.412;11.918;2024-03-08T02:28:22;24.48;;;11.98;;
43048;SDS011;28673;44.412;11.918;2024-03-08T02:30:51;26.58;;;12.10;;
43048;SDS011;28673;44.412;11.918;2024-03-08T02:33:21;24.40;;;12.77;;
43048;SDS011;28673;44.412;11.918;2024-03-08T02:35:48;33.72;;;14.65;;
43048;SDS011;28673;44.412;11.918;2024-03-08T02:38:16;29.52;;;13.65;;
43048;SDS011;28673;44.412;11.918;2024-03-08T02:40:47;21.70;;;13.45;;
43048;SDS011;28673;44.412;11.918;2024-03-08T02:43:15;24.67;;;13.75;;
43048;SDS011;28673;44.412;11.918;2024-03-08T02:45:42;26.77;;;13.93;;
43048;SDS011;28673;44.412;11.918;2024-03-08T02:48:09;24.42;;;13.95;;
43048;SDS011;28673;44.412;11.918;2024-03-08T02:50:36;26.42;;;12.93;;
43048;SDS011;28673;44.412;11.918;2024-03-08T02:53:01;28.42;;;14.60;;
43048;SDS011;28673;44.412;11.918;2024-03-08T02:55:28;23.33;;;13.43;;
43048;SDS011;28673;44.412;11.918;2024-03-08T02:57:54;22.58;;;12.32;;
43048;SDS011;28673;44.412;11.918;2024-03-08T03:00:20;26.30;;;13.38;;
43048;SDS011;28673;44.412;11.918;2024-03-08T03:02:51;26.05;;;12.60;;
43048;SDS011;28673;44.412;11.918;2024-03-08T03:05:22;21.42;;;12.25;;
43048;SDS011;28673;44.412;11.918;2024-03-08T03:07:49;25.60;;;12.52;;
43048;SDS011;28673;44.412;11.918;2024-03-08T03:10:18;23.52;;;11.40;;
43048;SDS011;28673;44.412;11.918;2024-03-08T03:12:44;19.83;;;11.52;;
43048;SDS011;28673;44.412;11.918;2024-03-08T03:15:11;26.15;;;11.85;;
43048;SDS011;28673;44.412;11.918;2024-03-08T03:17:38;20.00;;;12.23;;
43048;SDS011;28673;44.412;11.918;2024-03-08T03:20:07;22.25;;;12.55;;
43048;SDS011;28673;44.412;11.918;2024-03-08T03:22:39;23.33;;;11.30;;
43048;SDS011;28673;44.412;11.918;2024-03-08T03:25:12;22.92;;;12.20;;
43048;SDS011;28673;44.412;11.918;2024-03-08T03:27:38;19.05;;;10.88;;
43048;SDS011;28673;44.412;11.918;2024-03-08T03:30:05;20.23;;;10.63;;
43048;SDS011;28673;44.412;11.918;2024-03-08T03:32:49;27.75;;;12.98;;
43048;SDS011;28673;44.412;11.918;2024-03-08T03:35:20;25.58;;;11.82;;
43048;SDS011;28673;44.412;11.918;2024-03-08T03:37:46;20.33;;;11.90;;
43048;SDS011;28673;44.412;11.918;2024-03-08T03:40:31;22.65;;;11.77;;
43048;SDS011;28673;44.412;11.918;2024-03-08T03:43:01;20.42;;;11.70;;
43048;SDS011;28673;44.412;11.918;2024-03-08T03:45:30;15.93;;;11.02;;
43048;SDS011;28673;44.412;11.918;2024-03-08T03:48:01;18.73;;;10.70;;
43048;SDS011;28673;44.412;11.918;2024-03-08T03:50:31;22.98;;;12.95;;
43048;SDS011;28673;44.412;11.918;2024-03-08T03:53:06;25.38;;;12.75;;
43048;SDS011;28673;44.412;11.918;2024-03-08T03:55:32;21.98;;;12.23;;
43048;SDS011;28673;44.412;11.918;2024-03-08T03:57:58;23.05;;;13.50;;
43048;SDS011;28673;44.412;11.918;2024-03-08T04:00:26;27.83;;;13.30;;
43048;SDS011;28673;44.412;11.918;2024-03-08T04:02:52;23.30;;;12.38;;
43048;SDS011;28673;44.412;11.918;2024-03-08T04:05:18;23.15;;;12.75;;
43048;SDS011;28673;44.412;11.918;2024-03-08T04:07:44;21.77;;;12.48;;
43048;SDS011;28673;44.412;11.918;2024-03-08T04:10:10;26.27;;;12.75;;
43048;SDS011;28673;44.412;11.918;2024-03-08T04:12:36;25.27;;;13.07;;
43048;SDS011;28673;44.412;11.918;2024-03-08T04:15:03;26.30;;;12.68;;
43048;SDS011;28673;44.412;11.918;2024-03-08T04:17:32;24.80;;;11.43;;
43048;SDS011;28673;44.412;11.918;2024-03-08T04:20:04;27.13;;;12.05;;
43048;SDS011;28673;44.412;11.918;2024-03-08T04:22:35;22.48;;;12.30;;
43048;SDS011;28673;44.412;11.918;2024-03-08T04:25:02;17.75;;;10.77;;
43048;SDS011;28673;44.412;11.918;2024-03-08T04:27:28;21.73;;;12.20;;
43048;SDS011;28673;44.412;11.918;2024-03-08T04:29:54;24.42;;;12.82;;
43048;SDS011;28673;44.412;11.918;2024-03-08T04:32:20;20.60;;;11.82;;
43048;SDS011;28673;44.412;11.918;2024-03-08T04:34:45;23.02;;;11.10;;
43048;SDS011;28673;44.412;11.918;2024-03-08T04:37:11;18.75;;;11.30;;
43048;SDS011;28673;44.412;11.918;2024-03-08T04:39:39;19.17;;;11.95;;
43048;SDS011;28673;44.412;11.918;2024-03-08T04:42:05;21.98;;;11.27;;
43048;SDS011;28673;44.412;11.918;2024-03-08T04:44:38;22.35;;;10.77;;
43048;SDS011;28673;44.412;11.918;2024-03-08T04:47:04;19.63;;;11.63;;
43048;SDS011;28673;44.412;11.918;2024-03-08T04:49:33;22.00;;;11.88;;
43048;SDS011;28673;44.412;11.918;2024-03-08T04:52:04;23.65;;;12.02;;
43048;SDS011;28673;44.412;11.918;2024-03-08T04:54:30;23.40;;;10.82;;
43048;SDS011;28673;44.412;11.918;2024-03-08T04:56:57;23.70;;;11.88;;
43048;SDS011;28673;44.412;11.918;2024-03-08T04:59:23;27.15;;;11.30;;
43048;SDS011;28673;44.412;11.918;2024-03-08T05:01:49;18.67;;;9.68;;
43048;SDS011;28673;44.412;11.918;2024-03-08T05:04:14;25.05;;;11.18;;
43048;SDS011;28673;44.412;11.918;2024-03-08T05:06:40;18.17;;;9.93;;
43048;SDS011;28673;44.412;11.918;2024-03-08T05:09:06;22.60;;;10.77;;
43048;SDS011;28673;44.412;11.918;2024-03-08T05:11:42;21.55;;;10.60;;
43048;SDS011;28673;44.412;11.918;2024-03-08T05:14:09;19.80;;;10.40;;
43048;SDS011;28673;44.412;11.918;2024-03-08T05:16:35;22.17;;;10.95;;
43048;SDS011;28673;44.412;11.918;2024-03-08T05:19:04;19.45;;;10.02;;
43048;SDS011;28673;44.412;11.918;2024-03-08T05:21:30;21.30;;;11.05;;
43048;SDS011;28673;44.412;11.918;2024-03-08T05:23:56;22.02;;;10.93;;
43048;SDS011;28673;44.412;11.918;2024-03-08T05:26:22;16.52;;;10.23;;
43048;SDS011;28673;44.412;11.918;2024-03-08T05:28:48;21.65;;;10.50;;
43048;SDS011;28673;44.412;11.918;2024-03-08T05:31:18;33.67;;;11.93;;
43048;SDS011;28673;44.412;11.918;2024-03-08T05:33:48;20.10;;;10.45;;
43048;SDS011;28673;44.412;11.918;2024-03-08T05:36:14;25.02;;;10.77;;
43048;SDS011;28673;44.412;11.918;2024-03-08T05:38:44;21.70;;;10.18;;
43048;SDS011;28673;44.412;11.918;2024-03-08T05:41:10;19.50;;;11.05;;
43048;SDS011;28673;44.412;11.918;2024-03-08T05:43:42;18.10;;;9.57;;
43048;SDS011;28673;44.412;11.918;2024-03-08T05:46:09;19.52;;;10.13;;
43048;SDS011;28673;44.412;11.918;2024-03-08T05:48:36;16.38;;;9.38;;
43048;SDS011;28673;44.412;11.918;2024-03-08T05:51:03;18.17;;;9.27;;
43048;SDS011;28673;44.412;11.918;2024-03-08T05:53:29;15.20;;;9.65;;
43048;SDS011;28673;44.412;11.918;2024-03-08T05:55:57;16.95;;;8.43;;
43048;SDS011;28673;44.412;11.918;2024-03-08T05:58:24;16.70;;;8.63;;
43048;SDS011;28673;44.412;11.918;2024-03-08T06:00:50;15.75;;;8.48;;
43048;SDS011;28673;44.412;11.918;2024-03-08T06:03:15;24.02;;;9.65;;
43048;SDS011;28673;44.412;11.918;2024-03-08T06:05:41;17.90;;;8.85;;
43048;SDS011;28673;44.412;11.918;2024-03-08T06:08:07;17.25;;;8.18;;
43048;SDS011;28673;44.412;11.918;2024-03-08T06:10:33;16.52;;;9.02;;
43048;SDS011;28673;44.412;11.918;2024-03-08T06:12:59;20.08;;;9.98;;
43048;SDS011;28673;44.412;11.918;2024-03-08T06:15:26;22.20;;;9.45;;
43048;SDS011;28673;44.412;11.918;2024-03-08T06:17:52;18.27;;;10.55;;
43048;SDS011;28673;44.412;11.918;2024-03-08T06:20:18;18.58;;;9.48;;
43048;SDS011;28673;44.412;11.918;2024-03-08T06:22:43;21.05;;;9.20;;
43048;SDS011;28673;44.412;11.918;2024-03-08T06:25:13;17.88;;;9.32;;
43048;SDS011;28673;44.412;11.918;2024-03-08T06:27:43;16.92;;;7.95;;
43048;SDS011;28673;44.412;11.918;2024-03-08T06:30:09;20.98;;;9.23;;
43048;SDS011;28673;44.412;11.918;2024-03-08T06:32:36;18.77;;;9.40;;
43048;SDS011;28673;44.412;11.918;2024-03-08T06:35:02;20.50;;;10.20;;
43048;SDS011;28673;44.412;11.918;2024-03-08T06:37:31;16.65;;;8.60;;
43048;SDS011;28673;44.412;11.918;2024-03-08T06:39:58;20.70;;;9.55;;
43048;SDS011;28673;44.412;11.918;2024-03-08T06:42:23;23.83;;;10.55;;
43048;SDS011;28673;44.412;11.918;2024-03-08T06:44:49;13.77;;;9.05;;
43048;SDS011;28673;44.412;11.918;2024-03-08T06:47:15;19.73;;;10.85;;
43048;SDS011;28673;44.412;11.918;2024-03-08T06:49:42;36.20;;;13.57;;
43048;SDS011;28673;44.412;11.918;2024-03-08T06:52:08;35.65;;;16.35;;
43048;SDS011;28673;44.412;11.918;2024-03-08T06:54:35;33.33;;;16.55;;
43048;SDS011;28673;44.412;11.918;2024-03-08T06:57:02;40.92;;;18.40;;
43048;SDS011;28673;44.412;11.918;2024-03-08T06:59:31;41.00;;;19.42;;
43048;SDS011;28673;44.412;11.918;2024-03-08T07:01:57;40.45;;;19.30;;
43048;SDS011;28673;44.412;11.918;2024-03-08T07:04:24;31.90;;;17.88;;
43048;SDS011;28673;44.412;11.918;2024-03-08T07:06:55;35.28;;;16.80;;
43048;SDS011;28673;44.412;11.918;2024-03-08T07:09:22;39.17;;;17.92;;
43048;SDS011;28673;44.412;11.918;2024-03-08T07:11:51;36.65;;;18.33;;
43048;SDS011;28673;44.412;11.918;2024-03-08T07:14:23;39.22;;;18.67;;
43048;SDS011;28673;44.412;11.918;2024-03-08T07:16:49;31.05;;;19.20;;
43048;SDS011;28673;44.412;11.918;2024-03-08T07:19:15;44.38;;;18.05;;
43048;SDS011;28673;44.412;11.918;2024-03-08T07:21:45;41.55;;;20.00;;
43048;SDS011;28673;44.412;11.918;2024-03-08T07:24:12;35.88;;;18.63;;
43048;SDS011;28673;44.412;11.918;2024-03-08T07:26:44;33.53;;;17.65;;
43048;SDS011;28673;44.412;11.918;2024-03-08T07:29:14;47.20;;;19.52;;
43048;SDS011;28673;44.412;11.918;2024-03-08T07:31:43;35.13;;;17.67;;
43048;SDS011;28673;44.412;11.918;2024-03-08T07:34:21;45.47;;;19.77;;
43048;SDS011;28673;44.412;11.918;2024-03-08T07:36:47;33.08;;;17.92;;
43048;SDS011;28673;44.412;11.918;2024-03-08T07:39:12;36.00;;;18.65;;
43048;SDS011;28673;44.412;11.918;2024-03-08T07:41:41;35.25;;;19.17;;
43048;SDS011;28673;44.412;11.918;2024-03-08T07:44:07;35.65;;;18.45;;
43048;SDS011;28673;44.412;11.918;2024-03-08T07:46:33;34.08;;;18.45;;
43048;SDS011;28673;44.412;11.918;2024-03-08T07:48:59;36.17;;;17.50;;
43048;SDS011;28673;44.412;11.918;2024-03-08T07:51:25;35.42;;;18.40;;
43048;SDS011;28673;44.412;11.918;2024-03-08T07:53:51;47.35;;;20.17;;
43048;SDS011;28673;44.412;11.918;2024-03-08T07:56:17;32.70;;;17.52;;
43048;SDS011;28673;44.412;11.918;2024-03-08T07:58:44;53.65;;;20.67;;
43048;SDS011;28673;44.412;11.918;2024-03-08T08:01:19;45.63;;;18.90;;
43048;SDS011;28673;44.412;11.918;2024-03-08T08:03:45;35.33;;;18.20;;
43048;SDS011;28673;44.412;11.918;2024-03-08T08:06:14;33.00;;;17.88;;
43048;SDS011;28673;44.412;11.918;2024-03-08T08:08:43;34.75;;;19.45;;
43048;SDS011;28673;44.412;11.918;2024-03-08T08:11:09;33.97;;;18.92;;
43048;SDS011;28673;44.412;11.918;2024-03-08T08:13:41;37.88;;;18.48;;
43048;SDS011;28673;44.412;11.918;2024-03-08T08:16:08;30.20;;;18.05;;
43048;SDS011;28673;44.412;11.918;2024-03-08T08:18:35;33.38;;;17.02;;
43048;SDS011;28673;44.412;11.918;2024-03-08T08:21:02;34.15;;;18.98;;
43048;SDS011;28673;44.412;11.918;2024-03-08T08:23:28;34.10;;;18.40;;
43048;SDS011;28673;44.412;11.918;2024-03-08T08:25:55;34.85;;;17.55;;
43048;SDS011;28673;44.412;11.918;2024-03-08T08:28:21;33.58;;;16.98;;
43048;SDS011;28673;44.412;11.918;2024-03-08T08:30:46;31.20;;;17.45;;
43048;SDS011;28673;44.412;11.918;2024-03-08T08:33:14;33.65;;;18.13;;
43048;SDS011;28673;44.412;11.918;2024-03-08T08:35:40;33.58;;;18.60;;
43048;SDS011;28673;44.412;11.918;2024-03-08T08:38:06;34.08;;;17.95;;
43048;SDS011;28673;44.412;11.918;2024-03-08T08:40:33;33.65;;;15.60;;
43048;SDS011;28673;44.412;11.918;2024-03-08T08:43:01;34.97;;;17.25;;
43048;SDS011;28673;44.412;11.918;2024-03-08T08:45:30;30.45;;;18.35;;
43048;SDS011;28673;44.412;11.918;2024-03-08T08:47:56;30.67;;;16.27;;
43048;SDS011;28673;44.412;11.918;2024-03-08T08:50:25;28.92;;;15.02;;
43048;SDS011;28673;44.412;11.918;2024-03-08T08:52:52;28.25;;;14.95;;
43048;SDS011;28673;44.412;11.918;2024-03-08T08:55:18;26.33;;;14.80;;
43048;SDS011;28673;44.412;11.918;2024-03-08T08:57:46;26.13;;;13.57;;
43048;SDS011;28673;44.412;11.918;2024-03-08T09:00:17;29.93;;;16.40;;
43048;SDS011;28673;44.412;11.918;2024-03-08T09:02:49;33.40;;;15.00;;
43048;SDS011;28673;44.412;11.918;2024-03-08T09:05:16;27.92;;;15.13;;
43048;SDS011;28673;44.412;11.918;2024-03-08T09:07:45;30.38;;;14.90;;
43048;SDS011;28673;44.412;11.918;2024-03-08T09:10:11;26.58;;;14.65;;
43048;SDS011;28673;44.412;11.918;2024-03-08T09:12:40;23.35;;;14.57;;
43048;SDS011;28673;44.412;11.918;2024-03-08T09:15:06;29.23;;;15.30;;
43048;SDS011;28673;44.412;11.918;2024-03-08T09:17:36;26.63;;;14.03;;
43048;SDS011;28673;44.412;11.918;2024-03-08T09:20:05;26.00;;;15.23;;
43048;SDS011;28673;44.412;11.918;2024-03-08T09:22:32;27.95;;;14.18;;
43048;SDS011;28673;44.412;11.918;2024-03-08T09:24:58;25.25;;;13.05;;
43048;SDS011;28673;44.412;11.918;2024-03-08T09:27:23;28.10;;;13.98;;
43048;SDS011;28673;44.412;11.918;2024-03-08T09:29:49;27.52;;;12.50;;
43048;SDS011;28673;44.412;11.918;2024-03-08T09:32:15;21.13;;;12.13;;
43048;SDS011;28673;44.412;11.918;2024-03-08T09:34:41;24.55;;;13.25;;
43048;SDS011;28673;44.412;11.918;2024-03-08T09:37:07;19.15;;;10.27;;
43048;SDS011;28673;44.412;11.918;2024-03-08T09:39:34;25.20;;;11.82;;
43048;SDS011;28673;44.412;11.918;2024-03-08T09:42:00;18.20;;;11.02;;
43048;SDS011;28673;44.412;11.918;2024-03-08T09:44:27;18.00;;;10.13;;
43048;SDS011;28673;44.412;11.918;2024-03-08T09:46:54;19.48;;;10.45;;
43048;SDS011;28673;44.412;11.918;2024-03-08T09:49:20;26.73;;;11.68;;
43048;SDS011;28673;44.412;11.918;2024-03-08T09:51:46;20.95;;;10.43;;
43048;SDS011;28673;44.412;11.918;2024-03-08T09:54:12;21.42;;;11.13;;
43048;SDS011;28673;44.412;11.918;2024-03-08T09:56:41;16.52;;;9.50;;
43048;SDS011;28673;44.412;11.918;2024-03-08T09:59:11;16.70;;;10.15;;
43048;SDS011;28673;44.412;11.918;2024-03-08T10:01:37;17.05;;;9.73;;
43048;SDS011;28673;44.412;11.918;2024-03-08T10:04:06;16.08;;;10.05;;
43048;SDS011;28673;44.412;11.918;2024-03-08T10:06:32;16.25;;;10.48;;
43048;SDS011;28673;44.412;11.918;2024-03-08T10:08:58;18.20;;;9.77;;
43048;SDS011;28673;44.412;11.918;2024-03-08T10:11:24;15.57;;;9.73;;
43048;SDS011;28673;44.412;11.918;2024-03-08T10:13:52;13.95;;;9.32;;
43048;SDS011;28673;44.412;11.918;2024-03-08T10:16:20;15.68;;;9.18;;
43048;SDS011;28673;44.412;11.918;2024-03-08T10:18:46;23.08;;;9.75;;
43048;SDS011;28673;44.412;11.918;2024-03-08T10:21:12;19.02;;;9.15;;
43048;SDS011;28673;44.412;11.918;2024-03-08T10:23:40;15.43;;;8.82;;
43048;SDS011;28673;44.412;11.918;2024-03-08T10:26:17;15.65;;;9.65;;
43048;SDS011;28673;44.412;11.918;2024-03-08T10:28:47;15.75;;;9.23;;
43048;SDS011;28673;44.412;11.918;2024-03-08T10:31:14;16.48;;;9.32;;
43048;SDS011;28673;44.412;11.918;2024-03-08T10:33:40;17.90;;;10.25;;
43048;SDS011;28673;44.412;11.918;2024-03-08T10:36:10;12.48;;;8.02;;
43048;SDS011;28673;44.412;11.918;2024-03-08T10:38:38;17.13;;;10.13;;
43048;SDS011;28673;44.412;11.918;2024-03-08T10:41:23;16.60;;;9.45;;
43048;SDS011;28673;44.412;11.918;2024-03-08T10:43:56;16.67;;;8.45;;
43048;SDS011;28673;44.412;11.918;2024-03-08T10:47:09;15.82;;;8.00;;
43048;SDS011;28673;44.412;11.918;2024-03-08T10:49:51;12.95;;;7.65;;
43048;SDS011;28673;44.412;11.918;2024-03-08T10:52:21;17.98;;;8.73;;
43048;SDS011;28673;44.412;11.918;2024-03-08T10:54:48;14.93;;;8.50;;
43048;SDS011;28673;44.412;11.918;2024-03-08T10:57:17;13.93;;;8.18;;
43048;SDS011;28673;44.412;11.918;2024-03-08T10:59:45;14.55;;;8.25;;
43048;SDS011;28673;44.412;11.918;2024-03-08T11:02:15;10.40;;;7.07;;
43048;SDS011;28673;44.412;11.918;2024-03-08T11:04:48;11.40;;;7.15;;
43048;SDS011;28673;44.412;11.918;2024-03-08T11:07:15;12.65;;;6.53;;
43048;SDS011;28673;44.412;11.918;2024-03-08T11:09:45;10.43;;;6.72;;
43048;SDS011;28673;44.412;11.918;2024-03-08T11:12:23;16.50;;;7.00;;
43048;SDS011;28673;44.412;11.918;2024-03-08T11:15:00;12.38;;;6.00;;
43048;SDS011;28673;44.412;11.918;2024-03-08T11:19:59;5.78;;;4.93;;
43048;SDS011;28673;44.412;11.918;2024-03-08T11:22:31;10.38;;;5.45;;
43048;SDS011;28673;44.412;11.918;2024-03-08T11:24:59;9.18;;;5.70;;
43048;SDS011;28673;44.412;11.918;2024-03-08T11:27:30;10.48;;;6.63;;
43048;SDS011;28673;44.412;11.918;2024-03-08T11:30:03;9.27;;;5.90;;
43048;SDS011;28673;44.412;11.918;2024-03-08T11:32:35;8.65;;;4.75;;
43048;SDS011;28673;44.412;11.918;2024-03-08T11:35:02;7.72;;;5.10;;
43048;SDS011;28673;44.412;11.918;2024-03-08T11:37:32;11.27;;;5.32;;
43048;SDS011;28673;44.412;11.918;2024-03-08T11:40:00;7.90;;;5.25;;
43048;SDS011;28673;44.412;11.918;2024-03-08T11:42:27;11.20;;;5.07;;
43048;SDS011;28673;44.412;11.918;2024-03-08T11:44:53;12.00;;;4.88;;
43048;SDS011;28673;44.412;11.918;2024-03-08T11:47:20;9.50;;;5.03;;
43048;SDS011;28673;44.412;11.918;2024-03-08T11:49:46;7.22;;;4.75;;
43048;SDS011;28673;44.412;11.918;2024-03-08T11:52:17;10.55;;;5.68;;
43048;SDS011;28673;44.412;11.918;2024-03-08T11:54:53;9.90;;;5.28;;
43048;SDS011;28673;44.412;11.918;2024-03-08T11:57:25;8.30;;;5.57;;
43048;SDS011;28673;44.412;11.918;2024-03-08T11:59:54;10.40;;;4.38;;
43048;SDS011;28673;44.412;11.918;2024-03-08T12:02:24;9.63;;;4.68;;
43048;SDS011;28673;44.412;11.918;2024-03-08T12:04:56;7.10;;;4.03;;
43048;SDS011;28673;44.412;11.918;2024-03-08T12:07:24;7.35;;;4.38;;
43048;SDS011;28673;44.412;11.918;2024-03-08T12:12:45;7.95;;;4.95;;
43048;SDS011;28673;44.412;11.918;2024-03-08T12:15:13;5.85;;;3.85;;
43048;SDS011;28673;44.412;11.918;2024-03-08T12:17:40;6.57;;;3.70;;
43048;SDS011;28673;44.412;11.918;2024-03-08T12:20:11;5.78;;;4.25;;
43048;SDS011;28673;44.412;11.918;2024-03-08T12:22:42;6.68;;;4.00;;
43048;SDS011;28673;44.412;11.918;2024-03-08T12:25:12;8.57;;;3.67;;
43048;SDS011;28673;44.412;11.918;2024-03-08T12:27:42;9.07;;;4.00;;
43048;SDS011;28673;44.412;11.918;2024-03-08T12:30:24;8.98;;;4.97;;
43048;SDS011;28673;44.412;11.918;2024-03-08T12:32:55;13.38;;;5.30;;
43048;SDS011;28673;44.412;11.918;2024-03-08T12:35:23;7.93;;;5.25;;
43048;SDS011;28673;44.412;11.918;2024-03-08T12:37:52;10.05;;;5.15;;
43048;SDS011;28673;44.412;11.918;2024-03-08T12:40:19;7.15;;;4.57;;
43048;SDS011;28673;44.412;11.918;2024-03-08T12:42:52;15.88;;;5.18;;
43048;SDS011;28673;44.412;11.918;2024-03-08T12:45:17;8.10;;;5.30;;
43048;SDS011;28673;44.412;11.918;2024-03-08T12:47:43;7.55;;;4.88;;
43048;SDS011;28673;44.412;11.918;2024-03-08T12:50:10;10.00;;;6.32;;
43048;SDS011;28673;44.412;11.918;2024-03-08T12:52:36;12.93;;;5.65;;
43048;SDS011;28673;44.412;11.918;2024-03-08T12:55:02;9.57;;;5.65;;
43048;SDS011;28673;44.412;11.918;2024-03-08T12:57:28;11.65;;;4.95;;
43048;SDS011;28673;44.412;11.918;2024-03-08T12:59:54;8.77;;;5.30;;
43048;SDS011;28673;44.412;11.918;2024-03-08T13:02:20;10.50;;;5.07;;
43048;SDS011;28673;44.412;11.918;2024-03-08T13:04:46;8.52;;;4.85;;
43048;SDS011;28673;44.412;11.918;2024-03-08T13:07:20;11.65;;;5.93;;
43048;SDS011;28673;44.412;11.918;2024-03-08T13:09:48;9.63;;;5.55;;
43048;SDS011;28673;44.412;11.918;2024-03-08T13:12:14;8.23;;;5.03;;
43048;SDS011;28673;44.412;11.918;2024-03-08T13:14:40;10.73;;;5.28;;
43048;SDS011;28673;44.412;11.918;2024-03-08T13:17:06;6.93;;;4.57;;
43048;SDS011;28673;44.412;11.918;2024-03-08T13:19:36;8.15;;;4.68;;
43048;SDS011;28673;44.412;11.918;2024-03-08T13:22:03;7.07;;;4.70;;
43048;SDS011;28673;44.412;11.918;2024-03-08T13:24:30;6.72;;;4.97;;
43048;SDS011;28673;44.412;11.918;2024-03-08T13:26:56;8.18;;;4.65;;
43048;SDS011;28673;44.412;11.918;2024-03-08T13:29:22;8.70;;;4.93;;
43048;SDS011;28673;44.412;11.918;2024-03-08T13:31:48;8.13;;;4.47;;
43048;SDS011;28673;44.412;11.918;2024-03-08T13:34:17;7.50;;;5.05;;
43048;SDS011;28673;44.412;11.918;2024-03-08T13:36:43;7.63;;;5.05;;
43048;SDS011;28673;44.412;11.918;2024-03-08T13:39:11;8.00;;;4.78;;
43048;SDS011;28673;44.412;11.918;2024-03-08T13:41:43;6.47;;;4.60;;
43048;SDS011;28673;44.412;11.918;2024-03-08T13:44:10;11.98;;;4.15;;
43048;SDS011;28673;44.412;11.918;2024-03-08T13:46:36;8.95;;;5.07;;
43048;SDS011;28673;44.412;11.918;2024-03-08T13:49:05;6.05;;;4.50;;
43048;SDS011;28673;44.412;11.918;2024-03-08T13:51:33;7.78;;;4.10;;
43048;SDS011;28673;44.412;11.918;2024-03-08T13:53:59;8.38;;;5.18;;
43048;SDS011;28673;44.412;11.918;2024-03-08T13:56:26;9.40;;;4.85;;
43048;SDS011;28673;44.412;11.918;2024-03-08T13:58:52;6.05;;;4.55;;
43048;SDS011;28673;44.412;11.918;2024-03-08T14:01:21;7.38;;;4.78;;
43048;SDS011;28673;44.412;11.918;2024-03-08T14:03:47;8.65;;;4.45;;
43048;SDS011;28673;44.412;11.918;2024-03-08T14:06:13;6.57;;;3.90;;
43048;SDS011;28673;44.412;11.918;2024-03-08T14:08:39;7.05;;;4.20;;
43048;SDS011;28673;44.412;11.918;2024-03-08T14:11:05;7.38;;;3.72;;
43048;SDS011;28673;44.412;11.918;2024-03-08T14:13:42;6.80;;;4.18;;
43048;SDS011;28673;44.412;11.918;2024-03-08T14:16:11;7.10;;;4.13;;
43048;SDS011;28673;44.412;11.918;2024-03-08T14:18:37;6.45;;;4.13;;
43048;SDS011;28673;44.412;11.918;2024-03-08T14:21:03;11.77;;;3.65;;
43048;SDS011;28673;44.412;11.918;2024-03-08T14:23:30;7.57;;;3.90;;
43048;SDS011;28673;44.412;11.918;2024-03-08T14:25:58;5.22;;;3.58;;
43048;SDS011;28673;44.412;11.918;2024-03-08T14:28:24;7.43;;;3.95;;